Time;durP1;ratioP1;P1;durP2;ratioP2;P2;SDS_P1;SDS_P2;PMS_P1;PMS_P2;Temp;Humidity;BMP_temperature;BMP_pressure;BME280_temperature;BME280_humidity;BME280_pressure;Samples;Min_cycle;Max_cycle;Signal;HPM_P1;HPM_P2
2021/09/23 00:00:10;;;;;;;6.10;2.75;;;8.60;99.90;;;;;;5032031;28;20072;-53
2021/09/23 00:05:25;;;;;;;8.52;3.50;;;8.50;99.90;;;;;;5033291;28;20431;-52
2021/09/23 00:07:55;;;;;;;10.65;3.83;;;8.50;99.90;;;;;;5033177;28;20132;-52
2021/09/23 00:10:23;;;;;;;5.47;3.10;;;8.40;99.90;;;;;;5020619;28;20044;-54
2021/09/23 00:12:50;;;;;;;8.93;3.55;;;8.40;99.90;;;;;;5013211;28;20026;-54
2021/09/23 00:15:17;;;;;;;10.55;3.53;;;8.40;99.90;;;;;;5027345;28;20026;-49
2021/09/23 00:17:50;;;;;;;13.73;4.20;;;8.40;99.90;;;;;;5032900;28;20084;-51
2021/09/23 00:20:21;;;;;;;9.82;3.40;;;8.30;99.90;;;;;;5033069;28;20025;-56
2021/09/23 00:22:47;;;;;;;8.38;3.85;;;8.30;99.90;;;;;;5032957;28;20037;-54
2021/09/23 00:25:13;;;;;;;8.30;3.83;;;8.30;99.90;;;;;;5032778;28;20113;-56
2021/09/23 00:27:39;;;;;;;10.82;4.28;;;8.20;99.90;;;;;;5032637;28;20025;-53
2021/09/23 00:30:06;;;;;;;12.05;4.05;;;8.20;99.90;;;;;;5031566;28;20025;-52
2021/09/23 00:32:32;;;;;;;9.18;3.65;;;8.20;99.90;;;;;;5032606;28;20032;-53
2021/09/23 00:34:57;;;;;;;9.02;3.83;;;8.20;99.90;;;;;;5032862;28;20021;-53
2021/09/23 00:37:23;;;;;;;8.82;3.35;;;8.20;99.90;;;;;;5032678;28;20044;-52
2021/09/23 00:39:49;;;;;;;7.70;3.63;;;8.20;99.90;;;;;;5032570;28;20069;-56
2021/09/23 00:42:14;;;;;;;10.45;3.60;;;8.10;99.90;;;;;;5032457;28;20101;-55
2021/09/23 00:44:40;;;;;;;17.73;4.07;;;8.10;99.90;;;;;;5032600;28;20025;-52
2021/09/23 00:47:07;;;;;;;10.73;3.50;;;8.10;99.90;;;;;;5031034;28;20109;-51
2021/09/23 00:49:33;;;;;;;9.55;4.10;;;8.00;99.90;;;;;;5032422;28;20029;-48
2021/09/23 00:51:58;;;;;;;11.40;4.13;;;8.10;99.90;;;;;;5032398;28;20025;-52
2021/09/23 00:54:24;;;;;;;8.32;4.00;;;8.00;99.90;;;;;;5032304;28;20105;-52
2021/09/23 00:56:49;;;;;;;10.07;4.28;;;8.00;99.90;;;;;;5032320;28;20035;-52
2021/09/23 00:59:15;;;;;;;7.50;3.53;;;8.00;99.90;;;;;;5032511;28;20477;-53
2021/09/23 01:01:45;;;;;;;8.52;3.83;;;8.00;99.90;;;;;;5030859;28;20061;-51
2021/09/23 01:04:12;;;;;;;8.98;3.83;;;8.00;99.90;;;;;;5032462;28;20045;-52
2021/09/23 01:06:38;;;;;;;9.40;4.53;;;8.00;99.90;;;;;;5032007;28;20056;-52
2021/09/23 01:09:04;;;;;;;12.95;5.70;;;8.00;99.90;;;;;;5030600;28;20473;-53
2021/09/23 01:11:29;;;;;;;12.95;4.97;;;8.00;99.90;;;;;;5012415;28;20473;-55
2021/09/23 01:13:55;;;;;;;15.35;5.97;;;8.00;99.90;;;;;;5016888;28;20091;-54
2021/09/23 01:16:21;;;;;;;14.02;6.30;;;7.90;99.90;;;;;;5030944;28;20030;-51
2021/09/23 01:18:47;;;;;;;13.88;5.97;;;7.90;99.90;;;;;;5032306;28;20022;-55
2021/09/23 01:21:12;;;;;;;20.17;6.80;;;7.90;99.90;;;;;;5032239;28;20029;-55
2021/09/23 01:23:40;;;;;;;19.75;8.40;;;7.90;99.90;;;;;;5035802;28;20029;-50
2021/09/23 01:26:07;;;;;;;13.93;8.00;;;7.90;99.90;;;;;;5036091;28;20029;-53
2021/09/23 01:28:34;;;;;;;26.30;10.18;;;7.90;99.90;;;;;;5034766;28;20056;-53
2021/09/23 01:31:00;;;;;;;23.95;8.73;;;7.90;99.90;;;;;;5034872;28;20021;-55
2021/09/23 01:33:25;;;;;;;19.88;8.18;;;7.90;99.90;;;;;;5036112;28;20029;-51
2021/09/23 01:35:51;;;;;;;13.48;6.82;;;7.90;99.90;;;;;;5036034;28;20026;-51
2021/09/23 01:38:16;;;;;;;20.48;8.05;;;7.90;99.90;;;;;;5035960;28;20029;-55
2021/09/23 01:40:42;;;;;;;17.00;7.07;;;7.90;99.90;;;;;;5035742;28;20032;-51
2021/09/23 01:43:07;;;;;;;13.15;6.32;;;7.90;99.90;;;;;;5035912;28;20037;-51
2021/09/23 01:45:33;;;;;;;17.55;7.28;;;7.90;99.90;;;;;;5034601;28;20083;-54
2021/09/23 01:47:58;;;;;;;16.33;6.45;;;7.90;99.90;;;;;;5035883;28;20043;-52
2021/09/23 01:50:23;;;;;;;13.93;6.80;;;7.90;99.90;;;;;;5029478;28;20038;-54
2021/09/23 01:52:49;;;;;;;15.38;6.22;;;7.90;99.90;;;;;;5027271;28;20044;-52
2021/09/23 01:55:15;;;;;;;7.88;5.32;;;7.90;99.90;;;;;;5015853;28;20057;-54
2021/09/23 01:57:40;;;;;;;12.07;6.07;;;7.90;99.90;;;;;;5015700;28;20471;-54
2021/09/23 02:00:07;;;;;;;19.20;7.45;;;8.00;99.90;;;;;;5014706;28;20463;-50
2021/09/23 02:02:32;;;;;;;16.92;6.97;;;7.90;99.90;;;;;;5015625;28;20036;-51
2021/09/23 02:04:58;;;;;;;13.77;7.07;;;8.00;99.90;;;;;;5015715;28;20117;-52
2021/09/23 02:07:23;;;;;;;22.30;8.27;;;8.00;99.90;;;;;;5015529;28;20053;-50
2021/09/23 02:09:49;;;;;;;20.65;9.05;;;8.00;99.90;;;;;;5018146;28;20036;-50
2021/09/23 02:12:16;;;;;;;15.95;7.40;;;7.90;99.90;;;;;;5015419;28;20114;-51
2021/09/23 02:14:42;;;;;;;19.60;8.00;;;8.00;99.90;;;;;;5025752;28;20232;-56
2021/09/23 02:17:07;;;;;;;20.45;8.38;;;8.00;99.90;;;;;;5034445;28;20068;-51
2021/09/23 02:19:33;;;;;;;9.43;5.70;;;8.00;99.90;;;;;;5033506;28;20094;-49
2021/09/23 02:21:58;;;;;;;14.55;7.63;;;8.00;99.90;;;;;;5021754;28;20288;-53
2021/09/23 02:24:24;;;;;;;12.85;6.60;;;8.00;99.90;;;;;;5024543;28;20026;-53
2021/09/23 02:26:49;;;;;;;10.43;6.53;;;8.00;99.90;;;;;;5014984;28;20054;-54
2021/09/23 02:29:15;;;;;;;14.02;6.43;;;7.90;99.90;;;;;;5015405;28;20489;-55
2021/09/23 02:31:40;;;;;;;11.50;6.57;;;7.90;99.90;;;;;;5013689;28;20120;-54
2021/09/23 02:34:06;;;;;;;15.00;6.95;;;7.90;99.90;;;;;;5014897;28;20529;-53
2021/09/23 02:36:31;;;;;;;19.08;7.90;;;7.90;99.90;;;;;;5015181;28;20030;-54
2021/09/23 02:38:57;;;;;;;12.48;7.22;;;7.90;99.90;;;;;;5014649;28;20523;-56
2021/09/23 02:41:27;;;;;;;11.07;6.57;;;7.90;99.90;;;;;;5015246;28;20382;-50
2021/09/23 02:43:53;;;;;;;13.63;7.03;;;7.90;99.90;;;;;;5014884;28;20025;-54
2021/09/23 02:46:18;;;;;;;13.98;6.65;;;7.90;99.90;;;;;;5013633;28;20034;-51
2021/09/23 02:48:44;;;;;;;14.60;7.50;;;7.90;99.90;;;;;;5014683;28;20038;-51
2021/09/23 02:51:10;;;;;;;14.40;6.43;;;7.90;99.90;;;;;;5014842;28;20128;-52
2021/09/23 02:53:36;;;;;;;13.63;6.90;;;8.00;99.90;;;;;;5014559;28;20018;-53
2021/09/23 02:56:01;;;;;;;13.15;7.82;;;8.00;99.90;;;;;;5014744;28;20388;-52
2021/09/23 02:58:27;;;;;;;17.90;8.32;;;8.00;99.90;;;;;;5014566;28;20038;-53
2021/09/23 03:00:52;;;;;;;14.60;7.20;;;8.00;99.90;;;;;;5013456;28;20036;-50
2021/09/23 03:03:18;;;;;;;13.00;7.88;;;8.00;99.90;;;;;;5014554;28;20057;-50
2021/09/23 03:05:44;;;;;;;17.20;8.25;;;8.00;99.90;;;;;;5014413;28;20025;-53
2021/09/23 03:08:10;;;;;;;13.98;7.47;;;8.00;99.90;;;;;;5014370;28;20018;-52
2021/09/23 03:10:36;;;;;;;15.25;7.63;;;8.00;99.90;;;;;;5016172;28;20044;-51
2021/09/23 03:13:01;;;;;;;14.15;7.30;;;8.10;99.90;;;;;;5014112;28;20026;-52
2021/09/23 03:15:27;;;;;;;17.30;7.93;;;8.10;99.90;;;;;;5029920;28;20030;-55
2021/09/23 03:17:52;;;;;;;18.67;7.82;;;8.00;99.90;;;;;;5034089;28;20170;-55
2021/09/23 03:20:22;;;;;;;14.05;7.97;;;8.10;99.90;;;;;;5034164;28;20490;-51
2021/09/23 03:22:48;;;;;;;16.13;9.23;;;8.10;99.90;;;;;;5033683;28;20045;-53
2021/09/23 03:25:13;;;;;;;15.10;8.75;;;8.00;99.90;;;;;;5033991;28;20025;-53
2021/09/23 03:27:39;;;;;;;19.45;9.65;;;8.10;99.90;;;;;;5033749;28;20108;-54
2021/09/23 03:30:04;;;;;;;25.50;10.93;;;8.10;99.90;;;;;;5032544;28;20026;-54
2021/09/23 03:32:30;;;;;;;24.23;10.30;;;8.10;99.90;;;;;;5033755;28;20053;-51
2021/09/23 03:34:56;;;;;;;15.25;8.40;;;8.10;99.90;;;;;;5033713;28;20033;-52
2021/09/23 03:37:21;;;;;;;14.75;8.00;;;8.00;99.90;;;;;;5033470;28;20025;-55
2021/09/23 03:39:47;;;;;;;14.25;7.78;;;8.00;99.90;;;;;;5033717;28;20056;-56
2021/09/23 03:42:12;;;;;;;21.92;11.02;;;8.00;99.90;;;;;;5033421;28;20045;-55
2021/09/23 03:44:38;;;;;;;15.35;7.90;;;8.00;99.90;;;;;;5032904;28;20504;-51
2021/09/23 03:47:03;;;;;;;15.57;8.50;;;8.00;99.90;;;;;;5032584;28;20022;-53
2021/09/23 03:49:29;;;;;;;17.95;9.52;;;8.00;99.90;;;;;;5033420;28;20112;-53
2021/09/23 03:51:55;;;;;;;15.60;8.85;;;8.00;99.90;;;;;;5033142;28;20025;-53
2021/09/23 03:54:21;;;;;;;21.98;11.18;;;8.00;99.90;;;;;;5033380;28;20373;-55
2021/09/23 03:56:46;;;;;;;18.92;9.88;;;7.90;99.90;;;;;;5033359;28;20032;-56
2021/09/23 03:59:12;;;;;;;24.70;11.10;;;7.90;99.90;;;;;;5033119;28;20048;-54
2021/09/23 04:01:37;;;;;;;16.75;9.52;;;7.90;99.90;;;;;;5032307;28;20109;-55
2021/09/23 04:04:03;;;;;;;17.45;10.63;;;7.90;99.90;;;;;;5032962;28;20029;-53
2021/09/23 04:06:28;;;;;;;20.35;10.65;;;7.90;99.90;;;;;;5032913;28;20081;-54
2021/09/23 04:08:54;;;;;;;23.80;11.50;;;7.90;99.90;;;;;;5032419;28;20033;-52
2021/09/23 04:11:19;;;;;;;25.60;10.40;;;7.90;99.90;;;;;;5012075;28;20508;-55
2021/09/23 04:13:45;;;;;;;17.98;9.68;;;7.90;99.90;;;;;;5016026;28;20013;-53
2021/09/23 04:16:10;;;;;;;20.90;10.93;;;7.90;99.90;;;;;;5031738;28;20107;-55
2021/09/23 04:18:36;;;;;;;23.73;11.15;;;7.90;99.90;;;;;;5031765;28;20018;-53
2021/09/23 04:21:01;;;;;;;18.23;10.18;;;7.90;99.90;;;;;;5032881;28;20072;-54
2021/09/23 04:23:27;;;;;;;21.33;11.13;;;7.90;99.90;;;;;;5032834;28;20064;-53
2021/09/23 04:25:52;;;;;;;24.02;11.57;;;7.90;99.90;;;;;;5032851;28;20017;-53
2021/09/23 04:28:18;;;;;;;18.50;10.35;;;7.80;99.90;;;;;;5032777;28;20358;-52
2021/09/23 04:30:43;;;;;;;21.15;10.75;;;7.80;99.90;;;;;;5031975;28;20040;-53
2021/09/23 04:33:09;;;;;;;22.73;11.70;;;7.80;99.90;;;;;;5032717;28;20527;-52
2021/09/23 04:35:35;;;;;;;25.02;12.15;;;7.80;99.90;;;;;;5032774;28;20389;-53
2021/09/23 04:38:01;;;;;;;23.63;10.85;;;7.80;99.90;;;;;;5032549;28;20017;-56
2021/09/23 04:40:29;;;;;;;20.52;9.55;;;7.80;99.90;;;;;;5029060;28;20041;-56
2021/09/23 04:42:55;;;;;;;25.00;13.63;;;7.80;99.90;;;;;;5032372;28;20025;-56
2021/09/23 04:45:20;;;;;;;30.17;14.43;;;7.90;99.90;;;;;;5031562;28;20041;-56
2021/09/23 04:47:46;;;;;;;19.00;10.35;;;7.90;99.90;;;;;;5022870;28;20624;-54
2021/09/23 04:50:12;;;;;;;22.98;12.25;;;7.90;99.90;;;;;;5011411;28;20038;-52
2021/09/23 04:52:37;;;;;;;21.95;11.90;;;7.90;99.90;;;;;;5012341;28;20029;-51
2021/09/23 04:55:05;;;;;;;28.67;13.48;;;7.90;99.90;;;;;;5012482;28;20462;-55
2021/09/23 04:57:33;;;;;;;25.90;13.68;;;8.00;99.90;;;;;;5012650;28;20120;-51
2021/09/23 04:59:59;;;;;;;18.85;10.68;;;8.00;99.90;;;;;;5011187;28;20021;-53
2021/09/23 05:02:28;;;;;;;28.52;14.32;;;8.00;99.90;;;;;;5011426;28;20021;-54
2021/09/23 05:04:54;;;;;;;29.30;15.07;;;8.10;99.90;;;;;;5012354;28;20401;-55
2021/09/23 05:07:22;;;;;;;25.70;13.95;;;8.10;99.90;;;;;;5012619;28;20050;-54
2021/09/23 05:09:47;;;;;;;29.63;15.20;;;8.20;99.90;;;;;;5013926;28;20034;-56
2021/09/23 05:12:13;;;;;;;25.00;12.95;;;8.30;99.90;;;;;;5012607;28;20072;-50
2021/09/23 05:14:38;;;;;;;23.92;13.23;;;8.40;99.90;;;;;;5021930;28;20117;-51
2021/09/23 05:17:04;;;;;;;23.98;11.95;;;8.50;99.90;;;;;;5031791;28;20022;-56
2021/09/23 05:19:29;;;;;;;28.00;14.95;;;8.60;99.90;;;;;;5032125;28;20017;-55
2021/09/23 05:21:55;;;;;;;29.40;14.70;;;8.60;99.90;;;;;;5032436;28;20392;-53
2021/09/23 05:24:20;;;;;;;32.78;17.08;;;8.70;99.90;;;;;;5031196;28;20101;-55
2021/09/23 05:26:46;;;;;;;30.15;15.48;;;8.80;99.90;;;;;;5032325;28;20037;-49
2021/09/23 05:29:12;;;;;;;37.40;20.25;;;8.90;99.90;;;;;;5032156;28;20370;-51
2021/09/23 05:31:37;;;;;;;31.13;16.88;;;9.00;99.90;;;;;;5030554;28;20447;-55
2021/09/23 05:34:07;;;;;;;38.28;20.35;;;9.10;99.90;;;;;;5031804;28;20029;-54
2021/09/23 05:36:32;;;;;;;32.47;18.45;;;9.30;99.90;;;;;;5032195;28;20021;-53
2021/09/23 05:39:03;;;;;;;34.78;18.63;;;9.30;99.90;;;;;;5031999;28;20071;-51
2021/09/23 05:41:33;;;;;;;33.95;19.02;;;9.40;99.90;;;;;;5032160;28;20334;-53
2021/09/23 05:44:01;;;;;;;37.28;20.67;;;9.50;99.90;;;;;;5031910;28;20033;-53
2021/09/23 05:46:28;;;;;;;31.67;17.40;;;9.50;99.90;;;;;;5030690;28;20086;-52
2021/09/23 05:48:53;;;;;;;37.35;18.00;;;9.60;99.90;;;;;;5031877;28;20484;-53
2021/09/23 05:51:19;;;;;;;33.97;18.45;;;9.70;99.90;;;;;;5031936;28;20036;-55
2021/09/23 05:53:44;;;;;;;34.75;18.00;;;9.80;99.90;;;;;;5031915;28;20029;-54
2021/09/23 05:56:10;;;;;;;30.20;16.98;;;9.90;99.90;;;;;;5031902;28;20064;-51
2021/09/23 05:58:35;;;;;;;28.83;16.10;;;10.00;99.90;;;;;;5031999;28;20025;-56
2021/09/23 06:01:01;;;;;;;26.67;15.13;;;10.20;99.90;;;;;;5030462;28;20052;-55
2021/09/23 06:03:27;;;;;;;33.78;17.20;;;10.40;99.90;;;;;;5031556;28;20497;-53
2021/09/23 06:05:52;;;;;;;34.22;17.13;;;10.80;99.90;;;;;;5014192;28;20096;-54
2021/09/23 06:08:20;;;;;;;27.17;15.95;;;11.30;99.90;;;;;;4995560;28;20057;-55
2021/09/23 06:10:45;;;;;;;29.27;16.20;;;11.80;99.90;;;;;;5020000;28;20034;-50
2021/09/23 06:13:11;;;;;;;26.65;14.98;;;12.20;99.90;;;;;;5015544;28;20033;-55
2021/09/23 06:15:37;;;;;;;24.10;14.95;;;12.30;99.90;;;;;;5032573;28;20072;-54
2021/09/23 06:18:02;;;;;;;25.38;15.43;;;12.30;99.90;;;;;;5035138;28;20033;-51
2021/09/23 06:20:31;;;;;;;23.33;14.45;;;12.30;99.90;;;;;;5035429;28;20048;-53
2021/09/23 06:22:58;;;;;;;24.25;15.32;;;12.30;99.90;;;;;;5035246;28;20492;-54
2021/09/23 06:25:24;;;;;;;26.00;15.30;;;12.30;99.90;;;;;;5035159;28;20037;-50
2021/09/23 06:27:50;;;;;;;29.52;16.67;;;12.40;99.90;;;;;;5035172;28;20034;-53
2021/09/23 06:30:17;;;;;;;23.77;14.98;;;12.40;99.90;;;;;;5034185;28;20408;-53
2021/09/23 06:32:45;;;;;;;24.83;16.30;;;12.50;99.90;;;;;;5034802;28;20063;-56
2021/09/23 06:35:11;;;;;;;24.80;15.00;;;12.70;99.90;;;;;;5034862;28;20017;-55
2021/09/23 06:37:37;;;;;;;30.23;17.48;;;13.10;99.90;;;;;;5035103;28;20481;-54
2021/09/23 06:40:05;;;;;;;24.15;16.60;;;13.70;99.90;;;;;;5034808;28;20033;-54
2021/09/23 06:42:31;;;;;;;19.27;12.98;;;14.50;99.90;;;;;;5034869;28;20464;-56
2021/09/23 06:44:56;;;;;;;17.85;12.73;;;15.30;99.90;;;;;;5033756;28;20030;-51
2021/09/23 06:47:25;;;;;;;18.35;11.80;;;16.10;99.90;;;;;;5034586;28;20026;-56
2021/09/23 06:49:52;;;;;;;17.38;12.15;;;16.70;99.90;;;;;;5034707;28;20036;-55
2021/09/23 06:52:17;;;;;;;20.00;14.73;;;16.50;99.90;;;;;;5034733;28;20025;-55
2021/09/23 06:54:43;;;;;;;23.50;13.85;;;16.00;99.90;;;;;;5034600;28;20032;-55
2021/09/23 06:57:08;;;;;;;21.65;14.07;;;15.60;99.90;;;;;;5034628;28;20022;-56
2021/09/23 06:59:34;;;;;;;18.98;13.15;;;15.20;99.90;;;;;;5034187;28;20032;-56
2021/09/23 07:02:01;;;;;;;19.23;12.23;;;15.20;99.90;;;;;;5033788;28;20547;-51
2021/09/23 07:04:27;;;;;;;19.73;12.57;;;15.50;99.90;;;;;;5034413;28;20456;-55
2021/09/23 07:06:53;;;;;;;18.58;12.73;;;15.80;99.90;;;;;;5034419;28;20069;-56
2021/09/23 07:09:18;;;;;;;19.75;12.80;;;16.50;99.90;;;;;;5030618;28;20030;-50
2021/09/23 07:11:44;;;;;;;19.40;12.10;;;17.00;99.90;;;;;;5014444;28;20029;-52
2021/09/23 07:14:09;;;;;;;22.90;14.32;;;17.50;99.90;;;;;;5019211;28;20064;-51
2021/09/23 07:16:35;;;;;;;16.98;12.45;;;17.80;99.90;;;;;;5033333;28;20033;-51
2021/09/23 07:19:00;;;;;;;22.05;13.27;;;17.40;99.90;;;;;;5033513;28;20033;-52
2021/09/23 07:21:26;;;;;;;16.00;11.73;;;17.00;99.90;;;;;;5033611;28;20029;-53
2021/09/23 07:23:52;;;;;;;19.15;12.23;;;17.10;99.90;;;;;;5034202;28;20037;-54
2021/09/23 07:26:21;;;;;;;17.90;13.25;;;18.10;99.90;;;;;;5032537;28;20500;-53
2021/09/23 07:28:46;;;;;;;13.18;9.63;;;18.80;99.90;;;;;;5034043;28;20030;-55
2021/09/23 07:31:15;;;;;;;16.13;11.57;;;19.70;99.90;;;;;;5032845;28;20036;-52
2021/09/23 07:33:40;;;;;;;16.85;12.10;;;20.10;99.90;;;;;;5033876;28;20433;-55
2021/09/23 07:36:06;;;;;;;14.07;9.73;;;20.50;99.90;;;;;;5033745;28;20104;-50
2021/09/23 07:38:32;;;;;;;17.00;11.38;;;21.30;99.90;;;;;;5033801;28;20018;-52
2021/09/23 07:41:00;;;;;;;16.38;9.52;;;22.20;99.90;;;;;;5033696;28;20120;-54
2021/09/23 07:43:26;;;;;;;22.15;13.00;;;23.10;99.90;;;;;;5033606;28;20473;-57
2021/09/23 07:45:51;;;;;;;18.35;11.65;;;23.00;99.90;;;;;;5031259;28;20030;-53
2021/09/23 07:48:17;;;;;;;18.10;13.35;;;22.30;99.90;;;;;;5033550;28;20033;-55
2021/09/23 07:50:51;;;;;;;20.35;12.65;;;21.50;96.80;;;;;;5033508;28;20412;-54
2021/09/23 07:53:19;;;;;;;16.23;10.90;;;21.00;99.90;;;;;;5032027;28;20025;-52
2021/09/23 07:55:48;;;;;;;14.63;10.95;;;21.40;99.90;;;;;;5033363;28;20049;-51
2021/09/23 07:58:13;;;;;;;18.73;13.15;;;21.90;97.30;;;;;;5033284;28;20100;-56
2021/09/23 08:00:39;;;;;;;12.82;9.32;;;22.20;96.10;;;;;;5032421;28;20450;-52
2021/09/23 08:03:04;;;;;;;14.88;10.90;;;22.30;98.70;;;;;;5033268;28;20025;-56
2021/09/23 08:05:33;;;;;;;17.00;10.82;;;22.60;97.10;;;;;;5032880;28;20619;-56
2021/09/23 08:07:58;;;;;;;12.20;9.02;;;22.90;97.30;;;;;;5033333;28;20033;-52
2021/09/23 08:10:24;;;;;;;14.73;9.95;;;23.10;96.30;;;;;;5020456;28;20425;-58
2021/09/23 08:12:50;;;;;;;18.02;12.60;;;22.90;94.40;;;;;;5013387;28;20029;-55
2021/09/23 08:15:16;;;;;;;19.80;12.40;;;22.50;91.90;;;;;;5027562;28;20022;-53
2021/09/23 08:17:43;;;;;;;16.55;12.13;;;21.70;92.40;;;;;;5033266;28;20025;-56
2021/09/23 08:20:09;;;;;;;18.05;12.88;;;21.10;93.80;;;;;;5032837;28;20538;-55
2021/09/23 08:22:36;;;;;;;19.45;13.32;;;20.70;94.80;;;;;;5032976;28;20037;-55
2021/09/23 08:25:03;;;;;;;18.60;12.75;;;20.30;94.50;;;;;;5032856;28;20029;-53
2021/09/23 08:27:28;;;;;;;20.25;14.10;;;20.00;95.60;;;;;;5032757;28;20594;-53
2021/09/23 08:29:54;;;;;;;18.83;13.15;;;19.60;95.60;;;;;;5031873;28;20033;-56
2021/09/23 08:32:19;;;;;;;18.77;13.57;;;19.30;96.00;;;;;;5032529;28;20048;-56
2021/09/23 08:34:46;;;;;;;19.98;14.05;;;19.20;97.00;;;;;;5032584;28;20124;-54
2021/09/23 08:37:12;;;;;;;21.42;14.93;;;18.90;97.00;;;;;;5032881;28;20021;-51
2021/09/23 08:39:37;;;;;;;21.95;14.98;;;18.70;97.10;;;;;;5032674;28;20033;-56
2021/09/23 08:42:03;;;;;;;21.55;13.43;;;18.50;98.00;;;;;;5032693;28;20108;-52
2021/09/23 08:44:29;;;;;;;22.67;13.38;;;18.40;94.90;;;;;;5031239;28;20060;-53
2021/09/23 08:46:58;;;;;;;19.90;11.98;;;18.30;98.20;;;;;;5031825;28;20064;-53
2021/09/23 08:49:23;;;;;;;23.42;14.32;;;18.20;98.50;;;;;;5032324;28;20045;-57
2021/09/23 08:51:53;;;;;;;21.95;13.75;;;18.20;98.70;;;;;;5032701;28;20025;-53
2021/09/23 08:54:18;;;;;;;23.40;13.55;;;18.20;99.00;;;;;;5032514;28;20043;-53
2021/09/23 08:56:45;;;;;;;18.40;12.52;;;18.30;99.20;;;;;;5032711;28;20084;-51
2021/09/23 08:59:11;;;;;;;19.10;12.40;;;18.30;98.80;;;;;;5032576;28;20036;-55
2021/09/23 09:01:49;;;;;;;22.10;13.82;;;18.20;98.60;;;;;;5031432;28;20108;-51
2021/09/23 09:04:16;;;;;;;16.50;9.93;;;18.20;98.20;;;;;;5032219;28;20045;-55
2021/09/23 09:07:02;;;;;;;20.15;10.80;;;18.20;99.70;;;;;;5032317;28;20068;-56
2021/09/23 09:09:28;;;;;;;22.92;12.57;;;18.30;99.00;;;;;;5027631;28;20045;-50
2021/09/23 09:11:55;;;;;;;22.65;13.05;;;18.30;99.60;;;;;;5012744;28;20405;-54
2021/09/23 09:14:29;;;;;;;20.30;13.15;;;18.30;99.20;;;;;;5020327;28;20022;-54
2021/09/23 09:17:01;;;;;;;21.48;11.98;;;18.20;98.30;;;;;;5031521;28;20017;-53
2021/09/23 09:19:45;;;;;;;16.77;11.63;;;18.30;98.30;;;;;;5032184;28;20111;-54
2021/09/23 09:22:17;;;;;;;15.00;10.55;;;18.30;97.90;;;;;;5032393;28;20037;-55
2021/09/23 09:24:54;;;;;;;18.52;10.45;;;18.60;98.80;;;;;;5032370;28;20075;-53
2021/09/23 09:27:42;;;;;;;19.52;11.73;;;18.80;96.80;;;;;;5032305;28;20029;-55
2021/09/23 09:30:23;;;;;;;19.00;10.82;;;19.00;92.10;;;;;;5031134;28;20448;-54
2021/09/23 09:32:51;;;;;;;13.20;7.85;;;19.20;95.20;;;;;;5032172;28;20021;-52
2021/09/23 09:35:19;;;;;;;18.55;9.60;;;19.50;95.50;;;;;;5031993;28;20021;-54
2021/09/23 09:37:48;;;;;;;18.33;10.90;;;19.70;94.60;;;;;;5032172;28;20033;-54
2021/09/23 09:40:18;;;;;;;13.50;9.38;;;19.90;93.30;;;;;;5032117;28;20477;-53
2021/09/23 09:42:46;;;;;;;15.77;9.88;;;20.10;93.00;;;;;;5032602;28;20029;-56
2021/09/23 09:45:18;;;;;;;14.70;9.52;;;20.20;91.40;;;;;;5033720;28;20511;-52
2021/09/23 09:47:52;;;;;;;14.07;8.90;;;20.30;90.30;;;;;;5035925;28;20033;-57
2021/09/23 09:50:18;;;;;;;14.25;8.98;;;20.30;86.60;;;;;;5035734;28;20025;-58
2021/09/23 09:52:49;;;;;;;10.95;7.50;;;20.30;86.70;;;;;;5035763;28;20117;-53
2021/09/23 09:55:15;;;;;;;11.80;7.57;;;20.40;84.40;;;;;;5034454;28;20384;-55
2021/09/23 09:57:48;;;;;;;11.55;7.55;;;20.60;86.90;;;;;;5035665;28;20030;-53
2021/09/23 10:00:15;;;;;;;12.90;8.15;;;20.60;86.00;;;;;;5034701;28;20422;-49
2021/09/23 10:02:44;;;;;;;14.32;9.65;;;20.70;82.90;;;;;;5035607;28;20053;-56
2021/09/23 10:05:12;;;;;;;12.60;8.40;;;20.70;81.30;;;;;;5035517;28;20095;-55
2021/09/23 10:07:40;;;;;;;12.57;8.25;;;20.60;80.10;;;;;;5035225;28;20653;-50
2021/09/23 10:10:07;;;;;;;12.63;7.65;;;20.50;80.00;;;;;;5025436;28;20124;-54
2021/09/23 10:12:35;;;;;;;13.68;8.13;;;20.50;75.20;;;;;;5015547;28;20022;-53
2021/09/23 10:15:04;;;;;;;13.93;8.85;;;20.50;78.30;;;;;;5027790;28;20040;-54
2021/09/23 10:17:30;;;;;;;14.10;9.05;;;20.50;75.30;;;;;;5034046;28;20018;-55
2021/09/23 10:20:00;;;;;;;10.68;8.07;;;20.40;74.50;;;;;;5035335;28;20543;-52
2021/09/23 10:22:29;;;;;;;9.05;6.80;;;20.50;73.90;;;;;;5035130;28;20033;-57
2021/09/23 10:24:56;;;;;;;10.25;7.40;;;20.60;74.70;;;;;;5035309;28;20018;-54
2021/09/23 10:30:11;;;;;;;13.25;7.50;;;20.80;73.20;;;;;;5034133;28;20103;-52
2021/09/23 10:32:39;;;;;;;10.80;7.03;;;20.80;73.40;;;;;;5033753;28;20117;-54
2021/09/23 10:35:05;;;;;;;11.40;7.55;;;20.70;72.70;;;;;;5035194;28;20025;-53
2021/09/23 10:37:34;;;;;;;11.45;7.35;;;20.70;71.80;;;;;;5033435;28;20029;-55
2021/09/23 10:40:00;;;;;;;12.68;8.18;;;20.50;72.50;;;;;;5035044;28;20021;-50
2021/09/23 10:42:28;;;;;;;10.90;7.55;;;20.40;71.70;;;;;;5034770;28;20029;-54
2021/09/23 10:44:56;;;;;;;10.48;6.57;;;20.30;72.90;;;;;;5033841;28;20022;-57
2021/09/23 10:47:32;;;;;;;9.68;7.05;;;20.40;73.60;;;;;;5034839;28;20033;-55
2021/09/23 10:49:59;;;;;;;11.90;7.10;;;20.40;69.50;;;;;;5033618;28;20028;-56
2021/09/23 10:52:34;;;;;;;8.35;5.50;;;20.40;73.00;;;;;;5034477;28;20197;-55
2021/09/23 10:55:05;;;;;;;8.25;5.55;;;20.50;74.10;;;;;;5033442;28;20473;-51
2021/09/23 10:57:32;;;;;;;8.43;6.03;;;20.60;72.80;;;;;;5034333;28;20053;-51
2021/09/23 11:00:08;;;;;;;9.43;6.40;;;20.70;72.70;;;;;;5033784;28;20457;-55
2021/09/23 11:02:35;;;;;;;6.18;4.78;;;20.70;71.50;;;;;;5034449;28;20531;-50
2021/09/23 11:05:05;;;;;;;9.95;5.80;;;20.80;73.10;;;;;;4982835;28;20040;-50
2021/09/23 11:07:32;;;;;;;9.30;6.20;;;20.90;71.80;;;;;;5043163;28;20050;-55
2021/09/23 11:10:19;;;;;;;10.00;4.88;;;21.00;70.10;;;;;;5023823;28;20072;-53
2021/09/23 11:12:52;;;;;;;7.07;5.10;;;21.10;66.80;;;;;;5014534;28;20026;-51
2021/09/23 11:15:19;;;;;;;8.77;5.03;;;21.20;66.60;;;;;;5029068;28;20467;-57
2021/09/23 11:17:46;;;;;;;7.68;5.13;;;21.30;65.00;;;;;;5032846;28;20025;-52
2021/09/23 11:20:16;;;;;;;8.40;5.47;;;21.30;65.00;;;;;;5034291;28;20040;-54
2021/09/23 11:22:47;;;;;;;8.07;4.72;;;21.30;62.40;;;;;;5033998;28;20449;-51
2021/09/23 11:25:19;;;;;;;6.43;4.65;;;21.30;62.70;;;;;;5034203;28;20083;-50
2021/09/23 11:27:46;;;;;;;8.02;5.00;;;21.30;61.60;;;;;;5033959;28;20587;-54
2021/09/23 11:30:18;;;;;;;10.70;5.68;;;21.30;60.50;;;;;;5032996;28;20366;-55
2021/09/23 11:32:46;;;;;;;8.10;4.70;;;21.30;58.20;;;;;;5033715;28;20025;-52
2021/09/23 11:35:12;;;;;;;7.38;4.55;;;21.40;59.80;;;;;;5033797;28;20067;-54
2021/09/23 11:37:37;;;;;;;7.00;4.70;;;21.50;60.50;;;;;;5033541;28;20116;-53
2021/09/23 11:40:07;;;;;;;6.55;4.97;;;21.50;58.10;;;;;;5033915;28;20393;-57
2021/09/23 11:42:39;;;;;;;6.65;4.60;;;21.50;57.80;;;;;;5033255;28;20021;-53
2021/09/23 11:45:17;;;;;;;10.40;5.72;;;21.50;58.00;;;;;;5031584;28;20436;-54
2021/09/23 11:47:48;;;;;;;7.03;4.93;;;21.40;51.80;;;;;;5032198;28;20115;-52
2021/09/23 11:50:24;;;;;;;6.05;3.67;;;21.30;55.40;;;;;;5032408;28;20037;-54
2021/09/23 11:53:14;;;;;;;6.15;4.10;;;21.20;54.90;;;;;;5033448;28;20048;-51
2021/09/23 11:55:43;;;;;;;7.57;4.25;;;21.30;54.10;;;;;;5033470;28;20484;-55
2021/09/23 11:58:14;;;;;;;5.85;3.40;;;21.20;55.60;;;;;;5033407;28;20040;-54
2021/09/23 12:00:49;;;;;;;7.20;4.07;;;21.20;56.20;;;;;;5032353;28;20041;-54
2021/09/23 12:03:18;;;;;;;6.03;4.05;;;21.10;57.10;;;;;;5033423;28;20480;-55
2021/09/23 12:05:45;;;;;;;5.55;3.88;;;21.00;56.00;;;;;;5032533;28;20528;-55
2021/09/23 12:08:23;;;;;;;6.72;3.65;;;20.90;55.20;;;;;;5033367;28;20381;-55
2021/09/23 12:11:00;;;;;;;6.97;3.15;;;20.90;52.80;;;;;;5017216;28;20117;-54
2021/09/23 12:13:37;;;;;;;6.07;2.95;;;20.80;54.50;;;;;;5013750;28;20022;-54
2021/09/23 12:16:09;;;;;;;6.00;3.53;;;20.90;56.00;;;;;;5032231;28;20473;-54
2021/09/23 12:18:39;;;;;;;6.13;3.70;;;20.80;54.30;;;;;;5033164;28;20021;-57
2021/09/23 12:21:08;;;;;;;4.72;3.00;;;20.70;54.80;;;;;;5033019;28;20107;-54
2021/09/23 12:23:42;;;;;;;4.38;3.17;;;20.70;55.40;;;;;;5032993;28;20361;-54
2021/09/23 12:26:08;;;;;;;5.32;3.03;;;20.70;56.10;;;;;;5033017;28;20099;-54
2021/09/23 12:28:38;;;;;;;9.80;2.80;;;20.70;55.90;;;;;;5032988;28;20029;-55
2021/09/23 12:31:05;;;;;;;3.85;2.10;;;20.70;56.60;;;;;;5031637;28;20431;-50
2021/09/23 12:33:32;;;;;;;2.42;2.22;;;20.70;56.80;;;;;;5032774;28;20021;-55
2021/09/23 12:36:16;;;;;;;4.20;2.55;;;20.70;56.70;;;;;;5032979;28;20037;-56
2021/09/23 12:38:42;;;;;;;3.72;2.33;;;20.60;55.70;;;;;;5032796;28;20053;-55
2021/09/23 12:41:23;;;;;;;3.20;2.10;;;20.60;56.40;;;;;;5032534;28;20029;-57
2021/09/23 12:44:03;;;;;;;2.35;1.75;;;20.60;56.60;;;;;;5032524;28;20052;-53